Main page
METAR-TAF:

METAR-TAF

Airports :

Pisa International Airport

Pisa, Italy

latitude: 43-41N, longitude: 010-23E, elevation: 2 m

Current weather observation

The report was made 39 minutes ago, at 10:45 UTC
Wind 6 kt from the South
Temperature 7°C
Humidity 70%
Pressure 1007 hPa
Visibility 10 km or more
Scattered clouds at a height of 4000 ft
Broken clouds at a height of 6000 ft

METAR: LIRP 221045Z 17006KT 9999 SCT040 BKN060 07/02 Q1007 NOSIG

Time: 12:24 (11:24 UTC)

Forecast

The report was made 6 hours and 24 minutes ago, at 05:00 UTC
Forecast valid from 22 at 06 UTC to 23 at 06 UTC
Wind 10 kt from the East/Southeast
Visibility 10 km or more
Scattered clouds at a height of 3000 ft
Broken clouds at a height of 5000 ft
Temporary
from 22 at 06 UTC to 23 at 06 UTC
Visibility: 5000 m
rain, mist

TAF: LIRP 220500Z 2206/2306 12010KT 9999 SCT030 BKN050 TEMPO 2206/2306 5000 RA BR

Weather observations and forecasts of more than 4000 airports (METAR and TAF reports).

The available stations are represented by yellow and red dots on the map.

Hover mouse over dot to see the name of the station.

Then click to see weather observations and forecasts.

To change the map : click on the green buttons with a black cross to zoom in, on the green button with a dash to zoom out, or on the green arrows for adjacent maps.


METAR-TAF: